Time;durP1;ratioP1;P1;durP2;ratioP2;P2;SDS_P1;SDS_P2;PMS_P1;PMS_P2;Temp;Humidity;BMP_temperature;BMP_pressure;BME280_temperature;BME280_humidity;BME280_pressure;Samples;Min_cycle;Max_cycle;Signal;HPM_P1;HPM_P2
2021/01/17 00:00:11;;;;;;;6.10;2.40;;;20.70;30.90;;;;;;5065817;28;20806;-71
2021/01/17 00:02:37;;;;;;;9.15;2.88;;;20.80;31.40;;;;;;5072265;28;20387;-71
2021/01/17 00:05:08;;;;;;;4.65;2.60;;;20.80;31.20;;;;;;5071887;28;20380;-71
2021/01/17 00:07:35;;;;;;;5.22;2.50;;;20.80;31.20;;;;;;5068562;28;20475;-73
2021/01/17 00:10:03;;;;;;;4.03;2.53;;;20.80;31.20;;;;;;5071780;28;20384;-72
2021/01/17 00:12:28;;;;;;;5.13;2.72;;;20.70;30.70;;;;;;5071518;28;20470;-71
2021/01/17 00:14:54;;;;;;;5.50;2.50;;;20.70;30.70;;;;;;5071856;28;20498;-69
2021/01/17 00:17:20;;;;;;;4.83;2.83;;;20.70;30.70;;;;;;5068397;28;20399;-70
2021/01/17 00:19:45;;;;;;;5.63;3.00;;;20.60;30.00;;;;;;5071773;28;20391;-70
2021/01/17 00:22:11;;;;;;;4.03;2.97;;;20.60;30.20;;;;;;5072545;28;20884;-69
2021/01/17 00:24:36;;;;;;;3.85;2.92;;;20.60;30.00;;;;;;5071275;28;20403;-70
2021/01/17 00:27:02;;;;;;;5.10;3.10;;;20.60;29.80;;;;;;5071698;28;20388;-70
2021/01/17 00:29:28;;;;;;;4.82;3.25;;;20.60;29.60;;;;;;5071200;28;20391;-71
2021/01/17 00:31:53;;;;;;;3.93;3.13;;;20.60;29.50;;;;;;5071613;28;20431;-72
2021/01/17 00:34:19;;;;;;;3.72;3.05;;;20.60;29.40;;;;;;5071125;28;20400;-71
2021/01/17 00:36:45;;;;;;;3.77;3.20;;;20.60;29.30;;;;;;5071514;28;20748;-70
2021/01/17 00:39:10;;;;;;;3.83;3.00;;;20.60;29.30;;;;;;5071462;28;20403;-70
2021/01/17 00:41:36;;;;;;;3.70;3.00;;;20.60;29.20;;;;;;5070213;28;20467;-71
2021/01/17 00:44:04;;;;;;;5.05;3.00;;;20.60;29.30;;;;;;5070263;28;20443;-71
2021/01/17 00:46:37;;;;;;;4.43;3.15;;;20.50;29.30;;;;;;5071146;28;20375;-71
2021/01/17 00:49:03;;;;;;;3.67;2.97;;;20.50;29.30;;;;;;5069180;28;20391;-71
2021/01/17 00:51:41;;;;;;;4.32;3.20;;;20.50;29.40;;;;;;5071453;28;20392;-71
2021/01/17 00:54:08;;;;;;;3.45;2.80;;;20.50;29.10;;;;;;5069802;28;20384;-71
2021/01/17 00:56:33;;;;;;;3.83;2.60;;;20.50;29.30;;;;;;5070653;28;20383;-72
2021/01/17 00:58:59;;;;;;;4.20;2.80;;;20.50;29.30;;;;;;5071174;28;20468;-71
2021/01/17 01:01:25;;;;;;;3.73;2.50;;;20.50;29.30;;;;;;5086500;28;20521;-71
2021/01/17 01:03:50;;;;;;;3.03;2.50;;;20.50;29.40;;;;;;5071416;28;20427;-71
2021/01/17 01:06:17;;;;;;;3.10;2.70;;;20.50;29.40;;;;;;5070306;28;20856;-71
2021/01/17 01:08:44;;;;;;;3.10;2.80;;;20.50;29.20;;;;;;5070723;28;21122;-71
2021/01/17 01:11:15;;;;;;;3.15;2.70;;;20.40;29.30;;;;;;5071355;28;20489;-69
2021/01/17 01:13:41;;;;;;;3.50;2.80;;;20.40;29.30;;;;;;5071103;28;20388;-71
2021/01/17 01:16:11;;;;;;;3.13;2.65;;;20.40;29.40;;;;;;5071162;28;20384;-71
2021/01/17 01:18:37;;;;;;;3.15;2.50;;;20.40;29.30;;;;;;5070373;28;20416;-70
2021/01/17 01:21:02;;;;;;;3.20;2.60;;;20.40;29.20;;;;;;5070715;28;20379;-63
2021/01/17 01:23:28;;;;;;;3.20;2.70;;;20.30;29.20;;;;;;5070762;28;20879;-60
2021/01/17 01:25:57;;;;;;;3.57;2.63;;;20.30;29.10;;;;;;5070760;28;20400;-70
2021/01/17 01:28:22;;;;;;;2.97;2.67;;;20.30;29.00;;;;;;5067945;28;20394;-71
2021/01/17 01:30:49;;;;;;;3.30;2.50;;;20.30;29.20;;;;;;5070823;28;20376;-71
2021/01/17 01:33:14;;;;;;;3.15;2.78;;;20.30;29.10;;;;;;5070678;28;20443;-71
2021/01/17 01:35:40;;;;;;;3.13;2.73;;;20.30;29.10;;;;;;5070581;28;20887;-71
2021/01/17 01:38:05;;;;;;;3.00;2.55;;;20.30;29.10;;;;;;5086076;28;20426;-71
2021/01/17 01:40:32;;;;;;;3.10;2.60;;;20.30;28.90;;;;;;5069877;28;20411;-71
2021/01/17 01:42:58;;;;;;;3.20;2.80;;;20.30;28.90;;;;;;5070608;28;20388;-71
2021/01/17 01:45:23;;;;;;;3.33;2.45;;;20.30;29.10;;;;;;5070497;28;20790;-71
2021/01/17 01:47:49;;;;;;;3.27;2.83;;;20.30;28.80;;;;;;5086153;28;20500;-71
2021/01/17 01:50:15;;;;;;;3.13;2.60;;;20.30;28.90;;;;;;5070128;28;20426;-71
2021/01/17 01:52:41;;;;;;;3.10;2.80;;;20.30;29.10;;;;;;5070012;28;20868;-70
2021/01/17 01:55:07;;;;;;;3.17;2.72;;;20.30;28.70;;;;;;5070501;28;20402;-71
2021/01/17 01:57:33;;;;;;;3.35;3.00;;;20.20;28.50;;;;;;5070361;28;20492;-71
2021/01/17 01:59:59;;;;;;;3.22;2.80;;;20.20;28.30;;;;;;5070477;28;20860;-71
2021/01/17 02:02:25;;;;;;;2.93;2.63;;;20.30;28.30;;;;;;5068484;28;20619;-71
2021/01/17 02:04:51;;;;;;;3.15;2.70;;;20.20;28.30;;;;;;5070327;28;20392;-59
2021/01/17 02:07:41;;;;;;;3.10;2.80;;;20.20;28.10;;;;;;5071465;28;20392;-71
2021/01/17 02:10:07;;;;;;;2.63;2.30;;;20.20;28.40;;;;;;5051526;28;20861;-71
2021/01/17 02:13:20;;;;;;;3.00;2.70;;;20.20;28.50;;;;;;5050219;28;20922;-71
2021/01/17 02:15:47;;;;;;;3.20;2.80;;;20.20;28.70;;;;;;5029124;28;20481;-71
2021/01/17 02:18:15;;;;;;;2.85;2.35;;;20.20;28.60;;;;;;5029151;28;20422;-68
2021/01/17 02:20:42;;;;;;;3.35;2.65;;;20.20;28.80;;;;;;5041245;28;20392;-71
2021/01/17 02:23:16;;;;;;;2.83;2.47;;;20.10;28.90;;;;;;5050963;28;20401;-71
2021/01/17 02:25:42;;;;;;;3.28;2.47;;;20.10;29.10;;;;;;5051349;28;20410;-66
2021/01/17 02:28:11;;;;;;;2.47;2.20;;;20.00;29.20;;;;;;5051330;28;20429;-71
2021/01/17 02:30:50;;;;;;;2.97;2.50;;;20.00;29.20;;;;;;5050860;28;20377;-70
2021/01/17 02:33:24;;;;;;;2.90;2.30;;;19.90;29.30;;;;;;5051071;28;20905;-68
2021/01/17 02:35:53;;;;;;;2.90;2.60;;;19.80;29.30;;;;;;5051242;28;20392;-70
2021/01/17 02:39:03;;;;;;;2.30;2.10;;;19.80;29.40;;;;;;5050835;28;20463;-70
2021/01/17 02:41:45;;;;;;;2.92;2.42;;;19.80;29.60;;;;;;5028940;28;20434;-70
2021/01/17 02:44:12;;;;;;;2.35;2.10;;;19.70;29.50;;;;;;5050603;28;20878;-71
2021/01/17 02:46:37;;;;;;;2.47;2.20;;;19.80;29.50;;;;;;5050687;28;20424;-70
2021/01/17 02:49:03;;;;;;;2.30;1.98;;;19.80;29.50;;;;;;5050930;28;20412;-70
2021/01/17 02:51:29;;;;;;;2.63;2.40;;;19.80;29.30;;;;;;5051049;28;20421;-70
2021/01/17 02:54:20;;;;;;;2.77;2.27;;;19.80;29.20;;;;;;5051028;28;20463;-71
2021/01/17 02:56:56;;;;;;;2.63;2.30;;;19.70;29.20;;;;;;5047493;28;20402;-70
2021/01/17 02:59:24;;;;;;;2.60;2.20;;;19.70;29.30;;;;;;5051092;28;20488;-70
2021/01/17 03:01:54;;;;;;;2.35;2.10;;;19.70;29.30;;;;;;5050898;28;20384;-71
2021/01/17 03:04:26;;;;;;;2.97;2.38;;;19.60;29.40;;;;;;5050761;28;20472;-70
2021/01/17 03:06:52;;;;;;;2.60;2.20;;;19.60;29.90;;;;;;5050824;28;20798;-69
2021/01/17 03:09:20;;;;;;;2.80;2.07;;;19.60;29.50;;;;;;5050813;28;20488;-70
2021/01/17 03:11:45;;;;;;;2.50;2.25;;;19.50;29.50;;;;;;5050853;28;20467;-70
2021/01/17 03:14:12;;;;;;;2.80;2.20;;;19.50;29.60;;;;;;5050861;28;20468;-71
2021/01/17 03:16:38;;;;;;;2.22;1.90;;;19.50;29.60;;;;;;5050281;28;20485;-71
2021/01/17 03:19:03;;;;;;;2.10;1.90;;;19.40;29.60;;;;;;5050684;28;20480;-70
2021/01/17 03:21:29;;;;;;;2.27;1.90;;;19.40;29.20;;;;;;5050687;28;20443;-71
2021/01/17 03:23:55;;;;;;;2.10;1.77;;;19.40;29.20;;;;;;5052697;28;20411;-70
2021/01/17 03:26:20;;;;;;;2.70;2.50;;;19.30;29.20;;;;;;5054093;28;20386;-70
2021/01/17 03:28:46;;;;;;;2.58;2.38;;;19.20;26.50;;;;;;5053853;28;20397;-71
2021/01/17 03:31:11;;;;;;;2.63;2.37;;;19.10;27.70;;;;;;5054270;28;20423;-69
2021/01/17 03:33:37;;;;;;;2.65;2.30;;;18.90;28.40;;;;;;5054011;28;20451;-71
2021/01/17 03:36:03;;;;;;;2.90;2.30;;;19.00;28.70;;;;;;5052954;28;20900;-70
2021/01/17 03:38:29;;;;;;;2.13;1.90;;;19.00;28.60;;;;;;5053388;28;20418;-68
2021/01/17 03:40:54;;;;;;;2.42;2.10;;;19.00;28.80;;;;;;5053953;28;20389;-71
2021/01/17 03:43:20;;;;;;;2.60;2.10;;;19.00;29.10;;;;;;5053946;28;20901;-70
2021/01/17 03:45:45;;;;;;;2.33;2.13;;;19.00;29.00;;;;;;5053908;28;20369;-70
2021/01/17 03:48:11;;;;;;;2.20;1.90;;;19.00;29.10;;;;;;5053867;28;20390;-70
2021/01/17 03:50:36;;;;;;;2.53;2.20;;;19.00;29.10;;;;;;5053253;28;20420;-68
2021/01/17 03:53:02;;;;;;;2.40;2.20;;;19.00;29.30;;;;;;5053762;28;20389;-70
2021/01/17 03:55:28;;;;;;;2.40;2.10;;;19.00;29.10;;;;;;5053791;28;20401;-71
2021/01/17 03:57:53;;;;;;;2.63;2.43;;;19.00;29.10;;;;;;5053517;28;20436;-70
2021/01/17 04:00:20;;;;;;;2.55;2.35;;;18.90;29.10;;;;;;5053786;28;20393;-71
2021/01/17 04:02:45;;;;;;;3.70;2.47;;;18.90;29.10;;;;;;5053313;28;20389;-70
2021/01/17 04:05:11;;;;;;;2.30;2.10;;;18.90;29.10;;;;;;5053596;28;20476;-71
2021/01/17 04:07:37;;;;;;;2.10;1.77;;;18.90;29.10;;;;;;5053570;28;20389;-71
2021/01/17 04:10:04;;;;;;;2.07;1.80;;;18.90;29.60;;;;;;5053427;28;20716;-71
2021/01/17 04:12:31;;;;;;;2.20;1.90;;;18.90;29.40;;;;;;5052558;28;20397;-71
2021/01/17 04:14:57;;;;;;;2.20;1.88;;;18.90;29.20;;;;;;5053179;28;20389;-70
2021/01/17 04:17:22;;;;;;;3.22;2.92;;;18.80;29.20;;;;;;5053253;28;20420;-70
2021/01/17 04:19:48;;;;;;;2.40;2.20;;;18.70;25.70;;;;;;5052036;28;20770;-66
2021/01/17 04:22:13;;;;;;;2.38;2.15;;;18.60;28.10;;;;;;5053200;28;20393;-70
2021/01/17 04:24:39;;;;;;;2.40;2.20;;;18.50;28.60;;;;;;5052716;28;20520;-70
2021/01/17 04:27:05;;;;;;;2.42;2.10;;;18.50;28.80;;;;;;5053157;28;20394;-71
2021/01/17 04:29:30;;;;;;;2.07;1.87;;;18.60;29.00;;;;;;5053101;28;20390;-70
2021/01/17 04:31:58;;;;;;;2.33;2.10;;;18.60;29.10;;;;;;5052947;28;20534;-71
2021/01/17 04:34:24;;;;;;;2.35;2.15;;;18.60;29.30;;;;;;5052287;28;20432;-70
2021/01/17 04:36:51;;;;;;;2.20;1.95;;;18.60;29.30;;;;;;5052757;28;20866;-70
2021/01/17 04:39:17;;;;;;;2.42;2.22;;;18.60;29.40;;;;;;5052964;28;20435;-71
2021/01/17 04:41:45;;;;;;;2.40;2.20;;;18.60;29.30;;;;;;5052931;28;20472;-71
2021/01/17 04:44:12;;;;;;;2.58;2.30;;;18.60;29.40;;;;;;5052858;28;20451;-71
2021/01/17 04:46:39;;;;;;;2.30;2.10;;;18.60;29.20;;;;;;5052328;28;20792;-63
2021/01/17 04:49:08;;;;;;;2.80;2.40;;;18.50;29.20;;;;;;5052641;28;20394;-71
2021/01/17 04:51:35;;;;;;;2.40;2.07;;;18.60;29.30;;;;;;5052623;28;20822;-70
2021/01/17 04:54:03;;;;;;;2.50;2.30;;;18.60;29.40;;;;;;5052659;28;20758;-70
2021/01/17 04:56:42;;;;;;;2.30;2.10;;;18.60;29.40;;;;;;5052144;28;20469;-71
2021/01/17 04:59:08;;;;;;;2.28;2.00;;;18.50;29.40;;;;;;5052515;28;20455;-70
2021/01/17 05:01:48;;;;;;;2.47;2.10;;;18.50;29.40;;;;;;5052493;28;20385;-71
2021/01/17 05:04:41;;;;;;;2.42;2.10;;;18.50;29.40;;;;;;5052506;28;20393;-71
2021/01/17 05:07:21;;;;;;;2.17;1.98;;;18.50;29.40;;;;;;5052378;28;20393;-71
2021/01/17 05:10:03;;;;;;;2.13;1.88;;;18.50;29.40;;;;;;5052359;28;20402;-71
2021/01/17 05:12:46;;;;;;;2.07;1.87;;;18.50;29.60;;;;;;5051889;28;20432;-71
2021/01/17 05:15:12;;;;;;;1.90;1.70;;;18.40;29.60;;;;;;5052180;28;20385;-71
2021/01/17 05:17:41;;;;;;;1.83;1.60;;;18.50;29.70;;;;;;5051930;28;20413;-70
2021/01/17 05:20:08;;;;;;;2.20;1.88;;;18.40;29.70;;;;;;5052190;28;20397;-71
2021/01/17 05:22:35;;;;;;;2.30;2.03;;;18.50;29.80;;;;;;5051654;28;20750;-70
2021/01/17 05:25:04;;;;;;;2.50;2.20;;;18.40;29.70;;;;;;5052160;28;20965;-70
2021/01/17 05:27:30;;;;;;;2.30;1.90;;;18.40;29.60;;;;;;5051850;28;20456;-70
2021/01/17 05:29:56;;;;;;;2.33;2.10;;;18.40;29.60;;;;;;5052008;28;20384;-71
2021/01/17 05:32:22;;;;;;;2.40;2.20;;;18.40;29.70;;;;;;5052004;28;20405;-71
2021/01/17 05:34:50;;;;;;;2.58;2.22;;;18.40;29.50;;;;;;5049938;28;20761;-71
2021/01/17 05:37:16;;;;;;;2.50;2.20;;;18.30;29.40;;;;;;5051854;28;20492;-71
2021/01/17 05:39:55;;;;;;;2.50;2.15;;;18.30;29.40;;;;;;5051717;28;20488;-71
2021/01/17 05:42:29;;;;;;;2.40;2.20;;;18.30;29.50;;;;;;5051877;28;20381;-70
2021/01/17 05:45:09;;;;;;;2.45;1.98;;;18.30;29.50;;;;;;5051678;28;20386;-71
2021/01/17 05:47:35;;;;;;;2.40;2.15;;;18.30;29.50;;;;;;5051656;28;20382;-71
2021/01/17 05:50:10;;;;;;;2.67;2.30;;;18.20;29.50;;;;;;5051470;28;20447;-71
2021/01/17 05:52:36;;;;;;;2.03;1.80;;;18.30;29.40;;;;;;5051150;28;20390;-71
2021/01/17 05:55:03;;;;;;;2.10;1.80;;;18.20;29.60;;;;;;5051594;28;20386;-70
2021/01/17 05:57:30;;;;;;;2.00;1.70;;;18.30;29.70;;;;;;5051511;28;20425;-71
2021/01/17 05:59:56;;;;;;;1.97;1.77;;;18.20;29.80;;;;;;5051450;28;20416;-71
2021/01/17 06:02:23;;;;;;;2.80;2.20;;;18.20;29.80;;;;;;5051568;28;20397;-71
2021/01/17 06:04:58;;;;;;;2.47;2.22;;;18.20;29.90;;;;;;5050929;28;20432;-71
2021/01/17 06:07:26;;;;;;;2.90;2.60;;;18.20;29.90;;;;;;5051509;28;20393;-71
2021/01/17 06:10:06;;;;;;;2.90;2.60;;;18.20;29.90;;;;;;5051379;28;20389;-70
2021/01/17 06:12:38;;;;;;;2.50;2.25;;;18.20;29.80;;;;;;5050847;28;20973;-70
2021/01/17 06:15:09;;;;;;;2.60;2.30;;;18.20;29.80;;;;;;5051410;28;20393;-71
2021/01/17 06:17:37;;;;;;;2.85;2.40;;;18.20;29.80;;;;;;5051234;28;20413;-69
2021/01/17 06:20:08;;;;;;;2.42;2.10;;;18.10;29.80;;;;;;5051229;28;20473;-70
2021/01/17 06:22:35;;;;;;;2.22;2.00;;;18.10;29.70;;;;;;5050690;28;20397;-66
2021/01/17 06:25:02;;;;;;;2.20;2.00;;;18.10;29.80;;;;;;5051271;28;20503;-68
2021/01/17 06:27:29;;;;;;;2.65;2.22;;;18.10;29.80;;;;;;5049897;28;20547;-71
2021/01/17 06:29:56;;;;;;;2.25;2.00;;;18.10;29.80;;;;;;5051182;28;20421;-70
2021/01/17 06:32:24;;;;;;;2.63;2.20;;;18.10;29.90;;;;;;5051212;28;20401;-70
2021/01/17 06:34:51;;;;;;;2.67;2.30;;;18.10;29.90;;;;;;5050433;28;20460;-70
2021/01/17 06:37:19;;;;;;;2.35;1.80;;;18.10;29.90;;;;;;5050981;28;20890;-71
2021/01/17 06:39:48;;;;;;;1.90;1.70;;;18.00;29.80;;;;;;5050960;28;20401;-71
2021/01/17 06:42:16;;;;;;;2.20;2.00;;;18.00;29.90;;;;;;5050987;28;20385;-71
2021/01/17 06:44:42;;;;;;;2.00;1.80;;;18.00;30.00;;;;;;5050408;28;20427;-70
2021/01/17 06:47:23;;;;;;;2.22;1.98;;;18.00;30.00;;;;;;5050965;28;20758;-70
2021/01/17 06:49:51;;;;;;;2.30;1.90;;;18.00;30.00;;;;;;5050876;28;20820;-70
2021/01/17 06:52:17;;;;;;;2.25;2.05;;;18.00;30.00;;;;;;5050946;28;20852;-71
2021/01/17 06:54:45;;;;;;;2.47;2.28;;;18.00;29.90;;;;;;5050559;28;20531;-71
2021/01/17 06:57:11;;;;;;;2.40;2.20;;;18.00;29.80;;;;;;5050958;28;20396;-71
2021/01/17 06:59:48;;;;;;;2.25;2.00;;;18.00;29.80;;;;;;5054169;28;20405;-71
2021/01/17 07:02:16;;;;;;;2.70;2.33;;;18.00;29.80;;;;;;5054748;28;20385;-71
2021/01/17 07:04:53;;;;;;;3.00;2.30;;;17.90;29.60;;;;;;5054194;28;20389;-62
2021/01/17 07:07:47;;;;;;;2.40;2.20;;;17.90;29.70;;;;;;5054791;28;20389;-71
2021/01/17 07:10:13;;;;;;;2.60;2.30;;;17.90;29.80;;;;;;5054598;28;20388;-70
2021/01/17 07:13:02;;;;;;;2.57;2.33;;;17.90;29.80;;;;;;5054003;28;20428;-70
2021/01/17 07:15:32;;;;;;;2.85;2.30;;;17.90;29.80;;;;;;5054565;28;20401;-70
2021/01/17 07:18:05;;;;;;;2.70;2.38;;;17.90;29.80;;;;;;5054368;28;20444;-71
2021/01/17 07:20:48;;;;;;;2.60;2.30;;;17.80;29.60;;;;;;5054491;28;20386;-67
2021/01/17 07:23:16;;;;;;;2.10;1.80;;;17.80;29.60;;;;;;5054395;28;20413;-71
2021/01/17 07:25:44;;;;;;;2.07;1.87;;;17.80;29.80;;;;;;5054338;28;20385;-70
2021/01/17 07:28:11;;;;;;;2.17;1.88;;;17.80;29.90;;;;;;5054300;28;20389;-70
2021/01/17 07:30:52;;;;;;;2.20;1.80;;;17.80;29.90;;;;;;5053860;28;20457;-70
2021/01/17 07:33:30;;;;;;;2.00;1.70;;;17.80;30.00;;;;;;5054002;28;20784;-70
2021/01/17 07:36:02;;;;;;;2.17;1.88;;;17.80;30.00;;;;;;5052754;28;20408;-71
2021/01/17 07:38:29;;;;;;;1.87;1.60;;;17.80;30.00;;;;;;5054068;28;20938;-64
2021/01/17 07:40:58;;;;;;;2.17;1.80;;;17.80;30.10;;;;;;5053737;28;20389;-64
2021/01/17 07:43:24;;;;;;;2.05;1.85;;;17.60;29.20;;;;;;5054030;28;20846;-69
2021/01/17 07:45:50;;;;;;;1.92;1.60;;;17.50;29.40;;;;;;5053793;28;20400;-70
2021/01/17 07:48:16;;;;;;;2.50;1.90;;;17.40;29.60;;;;;;5053823;28;20401;-69
2021/01/17 07:50:44;;;;;;;2.35;2.00;;;17.40;29.80;;;;;;5053297;28;20381;-67
2021/01/17 07:53:31;;;;;;;2.75;2.30;;;17.40;30.00;;;;;;5053838;28;20392;-70
2021/01/17 07:56:25;;;;;;;2.70;2.08;;;17.40;29.90;;;;;;5053886;28;20764;-69
2021/01/17 07:58:53;;;;;;;3.80;2.35;;;17.40;30.70;;;;;;5053085;28;20444;-68
2021/01/17 08:01:31;;;;;;;2.25;1.92;;;17.40;30.00;;;;;;5053140;28;20381;-69
2021/01/17 08:04:05;;;;;;;2.20;2.00;;;17.40;30.40;;;;;;5053578;28;20397;-71
2021/01/17 08:06:34;;;;;;;2.23;1.93;;;17.40;29.90;;;;;;5051644;28;20386;-63
2021/01/17 08:09:04;;;;;;;4.45;2.00;;;17.40;30.70;;;;;;5052839;28;20382;-66
2021/01/17 08:11:44;;;;;;;3.10;1.90;;;17.40;30.80;;;;;;5052883;28;20386;-69
2021/01/17 08:14:32;;;;;;;2.55;2.00;;;17.40;30.80;;;;;;5053382;28;20393;-70
2021/01/17 08:17:11;;;;;;;2.30;1.92;;;17.40;30.50;;;;;;5052946;28;20389;-66
2021/01/17 08:19:44;;;;;;;2.50;2.05;;;17.40;30.40;;;;;;5053511;28;20469;-69
2021/01/17 08:22:19;;;;;;;2.30;1.70;;;17.40;30.40;;;;;;5053212;28;20858;-68
2021/01/17 08:24:49;;;;;;;2.95;1.88;;;17.30;30.40;;;;;;5052794;28;20389;-69
2021/01/17 08:27:39;;;;;;;2.15;1.70;;;17.40;30.60;;;;;;5053234;28;20386;-69
2021/01/17 08:30:07;;;;;;;2.35;1.80;;;17.30;30.50;;;;;;5052042;28;20428;-70
2021/01/17 08:32:38;;;;;;;4.10;1.90;;;17.30;30.60;;;;;;5053583;28;20477;-69
2021/01/17 08:35:10;;;;;;;2.55;1.70;;;17.30;31.20;;;;;;5052821;28;20452;-70
2021/01/17 08:37:35;;;;;;;3.72;1.98;;;17.40;31.20;;;;;;5052631;28;20912;-70
2021/01/17 08:40:02;;;;;;;3.20;2.10;;;17.30;31.80;;;;;;5052995;28;20476;-70
2021/01/17 08:42:33;;;;;;;3.08;1.95;;;17.30;32.30;;;;;;5052937;28;20403;-70
2021/01/17 08:44:59;;;;;;;2.13;1.80;;;17.40;32.80;;;;;;5052542;28;20444;-70
2021/01/17 08:47:25;;;;;;;2.40;1.70;;;17.40;32.60;;;;;;5052983;28;20867;-70
2021/01/17 08:49:51;;;;;;;2.72;1.90;;;17.30;32.90;;;;;;5052640;28;20394;-71
2021/01/17 08:52:28;;;;;;;3.00;2.10;;;17.40;32.60;;;;;;5052830;28;20381;-71
2021/01/17 08:54:54;;;;;;;2.28;1.77;;;17.40;32.70;;;;;;5052298;28;20489;-70
2021/01/17 08:57:42;;;;;;;3.60;2.08;;;17.30;32.60;;;;;;5052501;28;20488;-70
2021/01/17 09:00:15;;;;;;;2.08;1.70;;;17.30;32.70;;;;;;5052733;28;20421;-69
2021/01/17 09:02:41;;;;;;;2.10;1.80;;;17.40;32.70;;;;;;5051926;28;20942;-71
2021/01/17 09:05:17;;;;;;;2.30;2.00;;;17.30;32.10;;;;;;5052610;28;20401;-72
2021/01/17 09:07:45;;;;;;;2.38;1.80;;;17.30;31.70;;;;;;5052412;28;20388;-72
2021/01/17 09:10:14;;;;;;;4.03;2.47;;;17.30;31.90;;;;;;5052571;28;20389;-67
2021/01/17 09:12:40;;;;;;;4.55;2.28;;;17.30;31.70;;;;;;5051827;28;20956;-70
2021/01/17 09:15:19;;;;;;;4.23;2.50;;;17.30;31.50;;;;;;5050955;28;20501;-72
2021/01/17 09:18:12;;;;;;;3.10;2.40;;;17.30;31.70;;;;;;5052127;28;20423;-72
2021/01/17 09:20:42;;;;;;;4.00;1.85;;;17.30;31.20;;;;;;5050310;28;20409;-72
2021/01/17 09:23:10;;;;;;;3.13;2.15;;;17.40;31.80;;;;;;5052018;28;20373;-72
2021/01/17 09:25:37;;;;;;;3.45;2.28;;;17.40;31.60;;;;;;5051946;28;20953;-72
2021/01/17 09:28:02;;;;;;;4.38;2.20;;;17.30;31.60;;;;;;5052134;28;20382;-64
2021/01/17 09:30:28;;;;;;;4.10;1.90;;;17.30;31.40;;;;;;5051631;28;20404;-72
2021/01/17 09:32:54;;;;;;;3.50;1.80;;;17.30;31.70;;;;;;5050905;28;20420;-72
2021/01/17 09:35:21;;;;;;;4.70;2.40;;;17.30;32.10;;;;;;5051519;28;20746;-72
2021/01/17 09:37:56;;;;;;;4.65;2.05;;;17.30;31.50;;;;;;5051555;28;20424;-72
2021/01/17 09:40:21;;;;;;;3.30;1.85;;;17.30;31.80;;;;;;5051638;28;20762;-72
2021/01/17 09:42:47;;;;;;;4.67;1.70;;;17.20;31.50;;;;;;5050110;28;20401;-72
2021/01/17 09:45:13;;;;;;;4.90;1.70;;;17.30;31.80;;;;;;5051709;28;20873;-71
2021/01/17 09:47:39;;;;;;;4.10;1.95;;;17.30;31.90;;;;;;5051676;28;20480;-72
2021/01/17 09:50:10;;;;;;;3.42;1.90;;;17.30;32.60;;;;;;5051146;28;20393;-73
2021/01/17 09:52:40;;;;;;;4.57;2.00;;;17.20;31.70;;;;;;5049738;28;20484;-68
2021/01/17 09:55:10;;;;;;;4.75;2.00;;;17.20;31.80;;;;;;5051723;28;20390;-72
2021/01/17 09:57:38;;;;;;;4.75;1.90;;;17.20;31.80;;;;;;5051456;28;20486;-70
2021/01/17 10:00:12;;;;;;;4.05;1.90;;;17.20;31.70;;;;;;5050286;28;20401;-70
2021/01/17 10:02:37;;;;;;;3.67;1.92;;;17.20;31.60;;;;;;5069504;28;20857;-71
2021/01/17 10:05:04;;;;;;;3.90;1.90;;;17.20;31.50;;;;;;5071302;28;20395;-72
2021/01/17 10:07:29;;;;;;;3.50;2.20;;;17.20;31.60;;;;;;5071608;28;20376;-70
2021/01/17 10:09:55;;;;;;;2.97;2.20;;;17.20;31.50;;;;;;5071474;28;20392;-72
2021/01/17 10:12:24;;;;;;;3.38;1.65;;;17.20;31.50;;;;;;5071839;28;20449;-72
2021/01/17 10:14:50;;;;;;;3.08;2.10;;;17.20;31.50;;;;;;5071151;28;20725;-72
2021/01/17 10:17:16;;;;;;;2.50;1.80;;;17.10;31.40;;;;;;5071307;28;20416;-72
2021/01/17 10:19:46;;;;;;;2.85;2.00;;;17.10;31.30;;;;;;5071513;28;20376;-72
2021/01/17 10:22:16;;;;;;;2.53;1.63;;;17.10;31.90;;;;;;5071407;28;20395;-72
2021/01/17 10:24:42;;;;;;;3.25;1.52;;;17.10;31.20;;;;;;5071004;28;20890;-62
2021/01/17 10:27:10;;;;;;;2.70;1.80;;;17.10;31.50;;;;;;5068012;28;20388;-63
2021/01/17 10:29:41;;;;;;;2.70;1.92;;;17.10;31.90;;;;;;5059028;28;20389;-68
2021/01/17 10:32:08;;;;;;;3.38;2.58;;;17.10;31.50;;;;;;5065576;28;20475;-71
2021/01/17 10:34:47;;;;;;;2.75;2.10;;;17.10;31.10;;;;;;5070624;28;20435;-72
2021/01/17 10:37:15;;;;;;;4.13;2.10;;;17.10;31.30;;;;;;5069833;28;20408;-70
2021/01/17 10:39:41;;;;;;;3.70;2.00;;;17.10;31.10;;;;;;5070074;28;20871;-71
2021/01/17 10:42:13;;;;;;;3.15;2.00;;;17.10;31.20;;;;;;5070966;28;20395;-73
2021/01/17 10:44:51;;;;;;;5.18;2.03;;;17.10;31.20;;;;;;5070273;28;20380;-71
2021/01/17 10:47:42;;;;;;;2.88;2.30;;;17.10;31.20;;;;;;5070622;28;20441;-72
2021/01/17 10:50:11;;;;;;;2.63;1.73;;;17.10;31.10;;;;;;5068461;28;20391;-73
2021/01/17 10:52:49;;;;;;;2.97;1.70;;;17.10;31.20;;;;;;5070436;28;20482;-70
2021/01/17 10:55:16;;;;;;;2.97;1.70;;;17.00;31.10;;;;;;5070461;28;20395;-72
2021/01/17 10:57:42;;;;;;;2.72;1.63;;;17.00;31.10;;;;;;5070237;28;20414;-72
2021/01/17 11:00:09;;;;;;;2.25;1.65;;;17.00;31.10;;;;;;5070137;28;20463;-72
2021/01/17 11:02:35;;;;;;;2.08;1.60;;;17.00;31.10;;;;;;5070218;28;20380;-72
2021/01/17 11:05:03;;;;;;;2.33;1.60;;;17.00;31.10;;;;;;5069699;28;20453;-72
2021/01/17 11:07:29;;;;;;;2.45;1.80;;;17.00;31.10;;;;;;5069899;28;20390;-67
2021/01/17 11:09:55;;;;;;;2.83;1.60;;;17.00;31.10;;;;;;5070258;28;20388;-72
2021/01/17 11:12:41;;;;;;;2.45;1.60;;;17.00;31.10;;;;;;5070216;28;20470;-72
2021/01/17 11:15:18;;;;;;;2.53;1.65;;;17.00;31.70;;;;;;5067476;28;20396;-72
2021/01/17 11:17:51;;;;;;;2.88;1.55;;;17.00;31.00;;;;;;5067434;28;20489;-72
2021/01/17 11:20:17;;;;;;;2.55;1.70;;;17.00;31.00;;;;;;5069876;28;20463;-71
2021/01/17 11:22:44;;;;;;;2.63;1.77;;;17.00;31.00;;;;;;5070398;28;21149;-72
2021/01/17 11:25:28;;;;;;;3.50;1.60;;;16.90;31.00;;;;;;5067544;28;20903;-72
2021/01/17 11:27:57;;;;;;;2.03;1.60;;;16.90;31.00;;;;;;5069977;28;20380;-72
2021/01/17 11:30:27;;;;;;;2.20;1.80;;;16.90;31.00;;;;;;5068995;28;20388;-71
2021/01/17 11:33:09;;;;;;;2.35;1.60;;;17.00;31.00;;;;;;5069963;28;20880;-71
2021/01/17 11:35:36;;;;;;;2.10;1.60;;;16.90;31.60;;;;;;5070477;28;20449;-71
2021/01/17 11:38:02;;;;;;;3.33;1.65;;;16.90;30.90;;;;;;5070400;28;20908;-72
2021/01/17 11:40:28;;;;;;;1.98;1.70;;;16.90;30.90;;;;;;5070199;28;20380;-72
2021/01/17 11:43:11;;;;;;;2.10;1.60;;;16.90;31.00;;;;;;5069780;28;20408;-70
2021/01/17 11:45:44;;;;;;;2.50;1.73;;;16.90;31.00;;;;;;5067851;28;20395;-72
2021/01/17 11:48:11;;;;;;;2.20;1.70;;;16.90;30.90;;;;;;5068446;28;20400;-72
2021/01/17 11:50:44;;;;;;;2.00;1.80;;;16.90;30.90;;;;;;5070161;28;20376;-71
2021/01/17 11:53:11;;;;;;;2.22;1.60;;;16.90;31.00;;;;;;5068110;28;20426;-72
2021/01/17 11:55:37;;;;;;;2.00;1.60;;;16.90;30.90;;;;;;5085263;28;20772;-72
2021/01/17 11:58:14;;;;;;;2.38;1.60;;;16.90;30.90;;;;;;5069306;28;20423;-72
2021/01/17 12:01:01;;;;;;;1.90;1.60;;;16.90;31.00;;;;;;5069606;28;20475;-72
2021/01/17 12:03:30;;;;;;;1.85;1.60;;;16.80;31.50;;;;;;5082616;28;20735;-72
2021/01/17 12:06:01;;;;;;;2.08;1.70;;;16.80;30.90;;;;;;5069751;28;20386;-71
2021/01/17 12:08:47;;;;;;;2.17;1.83;;;16.80;30.90;;;;;;5067942;28;20399;-70
2021/01/17 12:11:28;;;;;;;1.90;1.67;;;16.80;31.10;;;;;;5069825;28;20403;-69
2021/01/17 12:13:54;;;;;;;2.65;1.60;;;16.80;30.90;;;;;;5066856;28;20408;-72
2021/01/17 12:16:27;;;;;;;2.20;1.63;;;16.80;30.80;;;;;;5069414;28;20399;-67
2021/01/17 12:18:53;;;;;;;1.85;1.55;;;16.80;30.80;;;;;;5065960;28;20430;-62
2021/01/17 12:21:23;;;;;;;2.53;2.00;;;16.90;30.90;;;;;;5069239;28;20383;-70
2021/01/17 12:23:49;;;;;;;2.25;1.90;;;16.90;31.10;;;;;;5068872;28;20403;-73
2021/01/17 12:26:18;;;;;;;3.60;2.20;;;16.90;31.40;;;;;;5069066;28;20384;-64
2021/01/17 12:28:44;;;;;;;3.85;1.85;;;16.90;31.50;;;;;;5068798;28;20407;-65
2021/01/17 12:31:14;;;;;;;2.15;1.67;;;16.90;31.70;;;;;;5068981;28;20400;-63
2021/01/17 12:33:39;;;;;;;3.30;1.90;;;17.00;34.20;;;;;;5064431;28;20411;-69
2021/01/17 12:36:10;;;;;;;3.58;2.00;;;17.10;33.60;;;;;;5069069;28;20384;-74
2021/01/17 12:38:36;;;;;;;3.17;2.10;;;17.20;33.20;;;;;;5066647;28;20506;-72
2021/01/17 12:41:07;;;;;;;4.72;2.30;;;17.20;33.50;;;;;;5068607;28;20388;-73
2021/01/17 12:43:33;;;;;;;6.75;3.45;;;17.30;36.60;;;;;;5066865;28;20391;-73
2021/01/17 12:45:59;;;;;;;4.60;2.40;;;17.50;41.30;;;;;;5084685;28;20404;-75
2021/01/17 12:48:25;;;;;;;3.60;2.20;;;17.70;40.90;;;;;;5061742;28;20395;-73
2021/01/17 12:50:51;;;;;;;3.35;1.92;;;17.80;42.00;;;;;;5065664;28;20396;-74
2021/01/17 12:53:16;;;;;;;2.80;2.07;;;17.70;40.30;;;;;;5066430;28;20542;-69
2021/01/17 12:55:48;;;;;;;3.38;2.00;;;17.70;39.50;;;;;;5066843;28;20514;-62
2021/01/17 12:58:17;;;;;;;4.60;2.05;;;17.70;38.20;;;;;;5066264;28;20416;-74
2021/01/17 13:00:42;;;;;;;4.47;1.80;;;17.70;38.40;;;;;;5064182;28;20427;-72